sensor_id;sensor_type;location;lat;lon;timestamp;pressure;altitude;pressure_sealevel;temperature;humidity
74079;BME280;62437;51.544;-3.276;2023-02-22T00:01:49;100667.04;;;3.64;77.78
74079;BME280;62437;51.544;-3.276;2023-02-22T00:04:14;100665.75;;;3.32;77.40
74079;BME280;62437;51.544;-3.276;2023-02-22T00:06:40;100665.06;;;3.31;77.08
74079;BME280;62437;51.544;-3.276;2023-02-22T00:09:06;100665.45;;;3.68;77.09
74079;BME280;62437;51.544;-3.276;2023-02-22T00:11:31;100668.58;;;3.80;77.00
74079;BME280;62437;51.544;-3.276;2023-02-22T00:13:57;100665.76;;;3.15;77.67
74079;BME280;62437;51.544;-3.276;2023-02-22T00:16:24;100664.50;;;3.25;78.04
74079;BME280;62437;51.544;-3.276;2023-02-22T00:18:49;100665.45;;;3.29;78.27
74079;BME280;62437;51.544;-3.276;2023-02-22T00:21:16;100664.08;;;3.24;79.17
74079;BME280;62437;51.544;-3.276;2023-02-22T00:23:42;100661.50;;;3.48;76.79
74079;BME280;62437;51.544;-3.276;2023-02-22T00:26:06;100659.02;;;3.57;77.30
74079;BME280;62437;51.544;-3.276;2023-02-22T00:28:31;100653.52;;;3.18;77.58
74079;BME280;62437;51.544;-3.276;2023-02-22T00:30:57;100647.85;;;3.37;77.88
74079;BME280;62437;51.544;-3.276;2023-02-22T00:33:23;100643.06;;;3.14;77.89
74079;BME280;62437;51.544;-3.276;2023-02-22T00:35:49;100637.72;;;3.14;78.06
74079;BME280;62437;51.544;-3.276;2023-02-22T00:38:16;100634.39;;;3.38;77.75
74079;BME280;62437;51.544;-3.276;2023-02-22T00:40:40;100634.38;;;3.47;77.21
74079;BME280;62437;51.544;-3.276;2023-02-22T00:43:06;100630.12;;;3.46;77.64
74079;BME280;62437;51.544;-3.276;2023-02-22T00:45:33;100626.18;;;3.42;77.60
74079;BME280;62437;51.544;-3.276;2023-02-22T00:47:58;100628.37;;;3.53;78.02
74079;BME280;62437;51.544;-3.276;2023-02-22T00:50:25;100623.12;;;3.09;77.51
74079;BME280;62437;51.544;-3.276;2023-02-22T00:52:49;100618.57;;;2.88;78.30
74079;BME280;62437;51.544;-3.276;2023-02-22T00:55:17;100617.32;;;3.15;78.61
74079;BME280;62437;51.544;-3.276;2023-02-22T00:57:40;100615.82;;;3.81;76.79
74079;BME280;62437;51.544;-3.276;2023-02-22T01:00:15;100617.43;;;3.47;77.52
74079;BME280;62437;51.544;-3.276;2023-02-22T01:02:32;100613.34;;;3.31;78.04
74079;BME280;62437;51.544;-3.276;2023-02-22T01:04:57;100610.19;;;3.28;77.64
74079;BME280;62437;51.544;-3.276;2023-02-22T01:07:23;100609.40;;;3.09;78.29
74079;BME280;62437;51.544;-3.276;2023-02-22T01:09:49;100606.36;;;3.45;78.04
74079;BME280;62437;51.544;-3.276;2023-02-22T01:12:15;100604.61;;;3.17;77.60
74079;BME280;62437;51.544;-3.276;2023-02-22T01:14:40;100597.12;;;3.42;77.41
74079;BME280;62437;51.544;-3.276;2023-02-22T01:17:06;100591.18;;;3.68;77.67
74079;BME280;62437;51.544;-3.276;2023-02-22T01:19:32;100591.29;;;4.41;75.00
74079;BME280;62437;51.544;-3.276;2023-02-22T01:21:57;100589.34;;;3.63;76.45
74079;BME280;62437;51.544;-3.276;2023-02-22T01:24:23;100589.43;;;3.84;75.48
74079;BME280;62437;51.544;-3.276;2023-02-22T01:26:51;100590.65;;;3.91;77.10
74079;BME280;62437;51.544;-3.276;2023-02-22T01:29:17;100590.04;;;3.81;77.10
74079;BME280;62437;51.544;-3.276;2023-02-22T01:31:40;100590.43;;;3.44;77.69
74079;BME280;62437;51.544;-3.276;2023-02-22T01:34:06;100585.70;;;3.43;77.67
74079;BME280;62437;51.544;-3.276;2023-02-22T01:36:32;100584.80;;;3.42;77.80
74079;BME280;62437;51.544;-3.276;2023-02-22T01:38:57;100581.84;;;3.35;77.99
74079;BME280;62437;51.544;-3.276;2023-02-22T01:41:23;100583.58;;;3.32;78.01
74079;BME280;62437;51.544;-3.276;2023-02-22T01:43:49;100581.40;;;2.88;78.47
74079;BME280;62437;51.544;-3.276;2023-02-22T01:46:20;100582.80;;;3.51;77.13
74079;BME280;62437;51.544;-3.276;2023-02-22T01:48:43;100578.95;;;3.23;77.25
74079;BME280;62437;51.544;-3.276;2023-02-22T01:51:10;100573.96;;;3.52;77.06
74079;BME280;62437;51.544;-3.276;2023-02-22T01:53:34;100572.32;;;3.51;77.32
74079;BME280;62437;51.544;-3.276;2023-02-22T01:55:59;100569.92;;;3.65;77.26
74079;BME280;62437;51.544;-3.276;2023-02-22T01:58:25;100565.87;;;3.73;77.80
74079;BME280;62437;51.544;-3.276;2023-02-22T02:00:49;100563.32;;;4.16;75.72
74079;BME280;62437;51.544;-3.276;2023-02-22T02:03:17;100559.69;;;4.12;74.44
74079;BME280;62437;51.544;-3.276;2023-02-22T02:05:41;100560.21;;;3.87;75.15
74079;BME280;62437;51.544;-3.276;2023-02-22T02:08:13;100561.01;;;4.01;76.31
74079;BME280;62437;51.544;-3.276;2023-02-22T02:10:32;100556.45;;;4.44;74.46
74079;BME280;62437;51.544;-3.276;2023-02-22T02:12:58;100553.17;;;4.02;75.61
74079;BME280;62437;51.544;-3.276;2023-02-22T02:15:27;100550.95;;;4.92;72.35
74079;BME280;62437;51.544;-3.276;2023-02-22T02:17:52;100548.63;;;4.54;73.21
74079;BME280;62437;51.544;-3.276;2023-02-22T02:20:21;100536.45;;;4.13;75.04
74079;BME280;62437;51.544;-3.276;2023-02-22T02:22:47;100534.99;;;4.40;74.02
74079;BME280;62437;51.544;-3.276;2023-02-22T02:32:35;100535.97;;;3.35;76.44
74079;BME280;62437;51.544;-3.276;2023-02-22T02:34:54;100536.42;;;3.92;76.86
74079;BME280;62437;51.544;-3.276;2023-02-22T02:37:21;100529.55;;;6.25;69.56
74079;BME280;62437;51.544;-3.276;2023-02-22T02:39:47;100521.88;;;6.58;67.56
74079;BME280;62437;51.544;-3.276;2023-02-22T02:42:08;100524.72;;;4.38;72.95
74079;BME280;62437;51.544;-3.276;2023-02-22T02:44:36;100522.77;;;4.52;72.90
74079;BME280;62437;51.544;-3.276;2023-02-22T02:47:00;100519.48;;;4.58;74.06
74079;BME280;62437;51.544;-3.276;2023-02-22T02:49:28;100519.75;;;4.99;72.55
74079;BME280;62437;51.544;-3.276;2023-02-22T02:51:52;100519.73;;;4.98;72.13
74079;BME280;62437;51.544;-3.276;2023-02-22T02:54:15;100516.64;;;4.32;73.19
74079;BME280;62437;51.544;-3.276;2023-02-22T02:56:41;100517.34;;;4.75;72.11
74079;BME280;62437;51.544;-3.276;2023-02-22T03:01:47;100508.72;;;4.04;75.60
74079;BME280;62437;51.544;-3.276;2023-02-22T03:06:38;100507.81;;;5.38;69.95
74079;BME280;62437;51.544;-3.276;2023-02-22T03:08:55;100510.61;;;4.21;72.29
74079;BME280;62437;51.544;-3.276;2023-02-22T03:11:17;100511.86;;;4.06;74.26
74079;BME280;62437;51.544;-3.276;2023-02-22T03:13:50;100511.71;;;4.04;75.08
74079;BME280;62437;51.544;-3.276;2023-02-22T03:16:14;100503.79;;;6.18;69.34
74079;BME280;62437;51.544;-3.276;2023-02-22T03:18:39;100504.26;;;5.01;71.36
74079;BME280;62437;51.544;-3.276;2023-02-22T03:21:04;100498.45;;;4.30;73.61
74079;BME280;62437;51.544;-3.276;2023-02-22T03:23:30;100499.68;;;3.95;74.75
74079;BME280;62437;51.544;-3.276;2023-02-22T03:25:52;100496.28;;;3.75;75.92
74079;BME280;62437;51.544;-3.276;2023-02-22T03:28:17;100492.43;;;4.01;75.98
74079;BME280;62437;51.544;-3.276;2023-02-22T03:30:43;100489.47;;;4.13;75.57
74079;BME280;62437;51.544;-3.276;2023-02-22T03:33:10;100484.74;;;3.92;75.75
74079;BME280;62437;51.544;-3.276;2023-02-22T03:35:36;100482.68;;;5.45;72.69
74079;BME280;62437;51.544;-3.276;2023-02-22T03:38:01;100479.94;;;5.98;70.28
74079;BME280;62437;51.544;-3.276;2023-02-22T03:40:26;100474.25;;;6.53;67.54
74079;BME280;62437;51.544;-3.276;2023-02-22T03:42:53;100479.23;;;6.28;67.83
74079;BME280;62437;51.544;-3.276;2023-02-22T03:45:16;100478.57;;;6.05;67.32
74079;BME280;62437;51.544;-3.276;2023-02-22T03:47:42;100475.44;;;6.12;68.50
74079;BME280;62437;51.544;-3.276;2023-02-22T03:50:08;100472.33;;;6.31;67.65
74079;BME280;62437;51.544;-3.276;2023-02-22T03:52:32;100475.61;;;4.77;71.82
74079;BME280;62437;51.544;-3.276;2023-02-22T03:54:57;100476.88;;;5.48;70.94
74079;BME280;62437;51.544;-3.276;2023-02-22T03:57:26;100476.81;;;4.50;73.26
74079;BME280;62437;51.544;-3.276;2023-02-22T03:59:50;100476.26;;;4.88;72.04
74079;BME280;62437;51.544;-3.276;2023-02-22T04:02:15;100467.86;;;7.11;66.26
74079;BME280;62437;51.544;-3.276;2023-02-22T04:04:40;100462.41;;;7.38;65.09
74079;BME280;62437;51.544;-3.276;2023-02-22T04:07:06;100460.85;;;7.73;63.78
74079;BME280;62437;51.544;-3.276;2023-02-22T04:09:31;100460.29;;;6.06;67.32
74079;BME280;62437;51.544;-3.276;2023-02-22T04:11:57;100458.11;;;6.57;66.53
74079;BME280;62437;51.544;-3.276;2023-02-22T04:14:23;100458.43;;;6.88;65.90
74079;BME280;62437;51.544;-3.276;2023-02-22T04:16:48;100458.11;;;6.18;67.57
74079;BME280;62437;51.544;-3.276;2023-02-22T04:19:15;100456.07;;;5.86;68.07
74079;BME280;62437;51.544;-3.276;2023-02-22T04:21:40;100460.85;;;4.96;71.27
74079;BME280;62437;51.544;-3.276;2023-02-22T04:24:06;100459.27;;;4.24;73.74
74079;BME280;62437;51.544;-3.276;2023-02-22T04:26:33;100458.18;;;4.74;72.30
74079;BME280;62437;51.544;-3.276;2023-02-22T04:28:57;100448.82;;;5.90;69.13
74079;BME280;62437;51.544;-3.276;2023-02-22T04:31:23;100443.04;;;5.45;70.25
74079;BME280;62437;51.544;-3.276;2023-02-22T04:33:50;100443.41;;;5.98;68.93
74079;BME280;62437;51.544;-3.276;2023-02-22T04:36:14;100442.40;;;6.83;67.21
74079;BME280;62437;51.544;-3.276;2023-02-22T04:38:40;100438.78;;;5.86;69.26
74079;BME280;62437;51.544;-3.276;2023-02-22T04:41:06;100440.02;;;5.00;71.92
74079;BME280;62437;51.544;-3.276;2023-02-22T04:43:31;100435.77;;;5.29;70.61
74079;BME280;62437;51.544;-3.276;2023-02-22T04:45:57;100433.39;;;5.89;69.46
74079;BME280;62437;51.544;-3.276;2023-02-22T04:48:23;100436.27;;;4.94;71.60
74079;BME280;62437;51.544;-3.276;2023-02-22T04:50:48;100432.88;;;4.72;73.63
74079;BME280;62437;51.544;-3.276;2023-02-22T04:53:14;100430.87;;;4.94;73.12
74079;BME280;62437;51.544;-3.276;2023-02-22T04:55:40;100431.11;;;4.92;73.47
74079;BME280;62437;51.544;-3.276;2023-02-22T04:58:05;100430.64;;;5.36;72.38
74079;BME280;62437;51.544;-3.276;2023-02-22T05:00:31;100427.20;;;5.60;70.52
74079;BME280;62437;51.544;-3.276;2023-02-22T05:02:57;100434.39;;;5.05;71.30
74079;BME280;62437;51.544;-3.276;2023-02-22T05:05:23;100431.18;;;4.44;72.90
74079;BME280;62437;51.544;-3.276;2023-02-22T05:07:49;100427.33;;;4.57;73.47
74079;BME280;62437;51.544;-3.276;2023-02-22T05:10:14;100430.02;;;4.51;74.03
74079;BME280;62437;51.544;-3.276;2023-02-22T05:12:40;100427.03;;;4.12;74.14
74079;BME280;62437;51.544;-3.276;2023-02-22T05:15:07;100425.09;;;4.87;72.72
74079;BME280;62437;51.544;-3.276;2023-02-22T05:17:31;100427.36;;;4.14;73.08
74079;BME280;62437;51.544;-3.276;2023-02-22T05:19:57;100426.46;;;4.28;74.40
74079;BME280;62437;51.544;-3.276;2023-02-22T05:22:22;100423.29;;;4.39;74.05
74079;BME280;62437;51.544;-3.276;2023-02-22T05:24:48;100424.66;;;4.03;75.94
74079;BME280;62437;51.544;-3.276;2023-02-22T05:27:14;100424.21;;;4.45;74.12
74079;BME280;62437;51.544;-3.276;2023-02-22T05:29:40;100420.08;;;4.07;74.61
74079;BME280;62437;51.544;-3.276;2023-02-22T05:32:05;100419.57;;;4.10;75.29
74079;BME280;62437;51.544;-3.276;2023-02-22T05:34:31;100413.50;;;4.74;74.16
74079;BME280;62437;51.544;-3.276;2023-02-22T05:36:57;100410.95;;;4.45;74.66
74079;BME280;62437;51.544;-3.276;2023-02-22T05:39:23;100403.74;;;6.83;67.47
74079;BME280;62437;51.544;-3.276;2023-02-22T05:41:48;100403.93;;;7.06;66.73
74079;BME280;62437;51.544;-3.276;2023-02-22T05:44:14;100402.25;;;6.36;67.32
74079;BME280;62437;51.544;-3.276;2023-02-22T05:46:40;100399.59;;;6.02;68.04
74079;BME280;62437;51.544;-3.276;2023-02-22T05:49:05;100394.25;;;5.05;72.32
74079;BME280;62437;51.544;-3.276;2023-02-22T05:51:31;100396.31;;;4.81;71.97
74079;BME280;62437;51.544;-3.276;2023-02-22T05:53:57;100393.91;;;4.78;71.08
74079;BME280;62437;51.544;-3.276;2023-02-22T05:56:28;100399.76;;;4.70;72.08
74079;BME280;62437;51.544;-3.276;2023-02-22T05:58:48;100391.12;;;5.43;71.28
74079;BME280;62437;51.544;-3.276;2023-02-22T06:01:14;100391.08;;;5.66;69.61
74079;BME280;62437;51.544;-3.276;2023-02-22T06:03:40;100390.68;;;5.30;72.10
74079;BME280;62437;51.544;-3.276;2023-02-22T06:06:06;100390.11;;;5.15;71.98
74079;BME280;62437;51.544;-3.276;2023-02-22T06:08:31;100391.19;;;5.53;70.73
74079;BME280;62437;51.544;-3.276;2023-02-22T06:10:57;100394.64;;;4.49;72.96
74079;BME280;62437;51.544;-3.276;2023-02-22T06:13:23;100396.28;;;4.35;74.70
74079;BME280;62437;51.544;-3.276;2023-02-22T06:15:48;100399.37;;;4.09;75.16
74079;BME280;62437;51.544;-3.276;2023-02-22T06:18:14;100393.94;;;6.08;70.01
74079;BME280;62437;51.544;-3.276;2023-02-22T06:20:40;100393.04;;;6.30;68.09
74079;BME280;62437;51.544;-3.276;2023-02-22T06:23:07;100394.19;;;6.13;70.07
74079;BME280;62437;51.544;-3.276;2023-02-22T06:25:31;100395.80;;;5.40;70.82
74079;BME280;62437;51.544;-3.276;2023-02-22T06:27:58;100395.22;;;5.28;70.51
74079;BME280;62437;51.544;-3.276;2023-02-22T06:30:24;100399.40;;;3.83;75.84
74079;BME280;62437;51.544;-3.276;2023-02-22T06:32:48;100403.31;;;4.70;72.29
74079;BME280;62437;51.544;-3.276;2023-02-22T06:35:14;100409.54;;;4.37;74.50
74079;BME280;62437;51.544;-3.276;2023-02-22T06:37:40;100410.34;;;5.47;70.95
74079;BME280;62437;51.544;-3.276;2023-02-22T06:40:06;100415.30;;;5.12;70.11
74079;BME280;62437;51.544;-3.276;2023-02-22T06:42:31;100418.35;;;4.54;72.32
74079;BME280;62437;51.544;-3.276;2023-02-22T06:44:57;100420.75;;;4.73;72.04
74079;BME280;62437;51.544;-3.276;2023-02-22T06:47:22;100423.88;;;4.23;74.10
74079;BME280;62437;51.544;-3.276;2023-02-22T06:49:52;100412.51;;;6.25;68.56
74079;BME280;62437;51.544;-3.276;2023-02-22T06:52:14;100424.81;;;4.84;70.14
74079;BME280;62437;51.544;-3.276;2023-02-22T06:54:40;100430.21;;;4.21;73.58
74079;BME280;62437;51.544;-3.276;2023-02-22T06:57:06;100434.20;;;6.13;69.60
74079;BME280;62437;51.544;-3.276;2023-02-22T06:59:31;100440.30;;;5.31;70.61
74079;BME280;62437;51.544;-3.276;2023-02-22T07:01:57;100444.06;;;6.52;68.44
74079;BME280;62437;51.544;-3.276;2023-02-22T07:04:22;100443.08;;;5.77;70.42
74079;BME280;62437;51.544;-3.276;2023-02-22T07:06:48;100444.61;;;6.23;69.34
74079;BME280;62437;51.544;-3.276;2023-02-22T07:09:15;100450.57;;;5.58;71.08
74079;BME280;62437;51.544;-3.276;2023-02-22T07:11:39;100453.30;;;3.22;77.08
74079;BME280;62437;51.544;-3.276;2023-02-22T07:14:05;100455.14;;;5.07;71.71
74079;BME280;62437;51.544;-3.276;2023-02-22T07:16:31;100457.81;;;5.37;71.54
74079;BME280;62437;51.544;-3.276;2023-02-22T07:18:56;100462.97;;;4.22;74.00
74079;BME280;62437;51.544;-3.276;2023-02-22T07:21:24;100470.30;;;4.22;74.64
74079;BME280;62437;51.544;-3.276;2023-02-22T07:23:52;100473.27;;;4.66;73.11
74079;BME280;62437;51.544;-3.276;2023-02-22T07:26:14;100471.32;;;6.41;68.86
74079;BME280;62437;51.544;-3.276;2023-02-22T07:28:39;100475.82;;;6.02;70.90
74079;BME280;62437;51.544;-3.276;2023-02-22T07:31:05;100483.39;;;4.89;74.21
74079;BME280;62437;51.544;-3.276;2023-02-22T07:33:32;100488.33;;;6.30;69.91
74079;BME280;62437;51.544;-3.276;2023-02-22T07:35:56;100492.77;;;6.00;71.11
74079;BME280;62437;51.544;-3.276;2023-02-22T07:38:22;100495.34;;;4.33;75.36
74079;BME280;62437;51.544;-3.276;2023-02-22T07:40:48;100504.92;;;5.59;71.55
74079;BME280;62437;51.544;-3.276;2023-02-22T07:43:17;100508.27;;;5.74;71.31
74079;BME280;62437;51.544;-3.276;2023-02-22T07:45:40;100512.59;;;5.51;71.03
74079;BME280;62437;51.544;-3.276;2023-02-22T07:48:06;100520.33;;;6.50;67.81
74079;BME280;62437;51.544;-3.276;2023-02-22T07:50:32;100526.79;;;6.01;69.74
74079;BME280;62437;51.544;-3.276;2023-02-22T07:52:58;100528.80;;;5.71;71.08
74079;BME280;62437;51.544;-3.276;2023-02-22T07:55:24;100524.49;;;6.90;66.65
74079;BME280;62437;51.544;-3.276;2023-02-22T07:57:49;100535.49;;;5.21;71.99
74079;BME280;62437;51.544;-3.276;2023-02-22T08:00:15;100536.64;;;5.80;69.96
74079;BME280;62437;51.544;-3.276;2023-02-22T08:02:39;100543.79;;;5.10;73.08
74079;BME280;62437;51.544;-3.276;2023-02-22T08:05:05;100549.24;;;5.10;72.51
74079;BME280;62437;51.544;-3.276;2023-02-22T08:07:30;100555.06;;;4.38;74.40
74079;BME280;62437;51.544;-3.276;2023-02-22T08:09:56;100563.88;;;6.67;68.91
74079;BME280;62437;51.544;-3.276;2023-02-22T08:12:22;100569.91;;;6.20;69.05
74079;BME280;62437;51.544;-3.276;2023-02-22T08:14:48;100575.43;;;6.09;69.95
74079;BME280;62437;51.544;-3.276;2023-02-22T08:17:13;100579.09;;;5.26;72.50
74079;BME280;62437;51.544;-3.276;2023-02-22T08:19:39;100581.96;;;6.08;68.89
74079;BME280;62437;51.544;-3.276;2023-02-22T08:22:05;100589.78;;;6.33;69.46
74079;BME280;62437;51.544;-3.276;2023-02-22T08:24:30;100593.11;;;3.94;74.38
74079;BME280;62437;51.544;-3.276;2023-02-22T08:26:56;100593.91;;;5.75;72.31
74079;BME280;62437;51.544;-3.276;2023-02-22T08:29:22;100597.52;;;5.07;74.08
74079;BME280;62437;51.544;-3.276;2023-02-22T08:31:49;100593.89;;;7.29;66.93
74079;BME280;62437;51.544;-3.276;2023-02-22T08:34:13;100598.20;;;6.20;68.43
74079;BME280;62437;51.544;-3.276;2023-02-22T08:36:41;100601.03;;;5.58;71.37
74079;BME280;62437;51.544;-3.276;2023-02-22T08:39:04;100598.97;;;5.41;72.49
74079;BME280;62437;51.544;-3.276;2023-02-22T08:41:30;100597.19;;;6.24;69.12
74079;BME280;62437;51.544;-3.276;2023-02-22T08:43:56;100602.19;;;6.73;69.48
74079;BME280;62437;51.544;-3.276;2023-02-22T08:46:21;100602.60;;;4.23;76.90
74079;BME280;62437;51.544;-3.276;2023-02-22T08:48:50;100601.14;;;5.83;72.21
74079;BME280;62437;51.544;-3.276;2023-02-22T08:51:13;100605.69;;;6.32;70.96
74079;BME280;62437;51.544;-3.276;2023-02-22T08:53:38;100608.73;;;4.74;73.57
74079;BME280;62437;51.544;-3.276;2023-02-22T08:56:05;100607.52;;;5.67;72.03
74079;BME280;62437;51.544;-3.276;2023-02-22T08:58:30;100604.39;;;5.77;71.88
74079;BME280;62437;51.544;-3.276;2023-02-22T09:00:55;100609.29;;;5.58;71.37
74079;BME280;62437;51.544;-3.276;2023-02-22T09:03:21;100614.70;;;6.43;69.25
74079;BME280;62437;51.544;-3.276;2023-02-22T09:05:47;100618.19;;;4.27;72.78
74079;BME280;62437;51.544;-3.276;2023-02-22T09:08:15;100621.07;;;4.24;74.10
74079;BME280;62437;51.544;-3.276;2023-02-22T09:10:38;100614.78;;;5.28;75.47
74079;BME280;62437;51.544;-3.276;2023-02-22T09:13:04;100620.85;;;5.53;73.79
74079;BME280;62437;51.544;-3.276;2023-02-22T09:15:31;100625.51;;;4.21;77.29
74079;BME280;62437;51.544;-3.276;2023-02-22T09:17:56;100624.25;;;5.01;70.30
74079;BME280;62437;51.544;-3.276;2023-02-22T09:20:22;100624.70;;;4.75;76.71
74079;BME280;62437;51.544;-3.276;2023-02-22T09:22:48;100638.82;;;2.39;79.48
74079;BME280;62437;51.544;-3.276;2023-02-22T09:25:14;100628.33;;;4.14;77.81
74079;BME280;62437;51.544;-3.276;2023-02-22T09:27:38;100627.57;;;3.24;80.56
74079;BME280;62437;51.544;-3.276;2023-02-22T09:30:04;100629.12;;;4.51;74.53
74079;BME280;62437;51.544;-3.276;2023-02-22T09:32:30;100633.87;;;5.52;72.65
74079;BME280;62437;51.544;-3.276;2023-02-22T09:34:56;100639.16;;;4.67;74.24
74079;BME280;62437;51.544;-3.276;2023-02-22T09:37:21;100636.63;;;4.92;73.78
74079;BME280;62437;51.544;-3.276;2023-02-22T09:39:48;100642.63;;;6.46;71.59
74079;BME280;62437;51.544;-3.276;2023-02-22T09:42:19;100643.97;;;4.70;71.99
74079;BME280;62437;51.544;-3.276;2023-02-22T09:44:43;100645.35;;;6.10;73.25
74079;BME280;62437;51.544;-3.276;2023-02-22T09:47:12;100649.40;;;4.62;71.23
74079;BME280;62437;51.544;-3.276;2023-02-22T09:49:33;100654.98;;;3.69;75.80
74079;BME280;62437;51.544;-3.276;2023-02-22T09:52:00;100656.39;;;4.80;76.33
74079;BME280;62437;51.544;-3.276;2023-02-22T09:54:25;100656.47;;;5.57;71.99
74079;BME280;62437;51.544;-3.276;2023-02-22T09:56:47;100664.11;;;4.17;72.04
74079;BME280;62437;51.544;-3.276;2023-02-22T09:59:19;100660.16;;;3.52;73.95
74079;BME280;62437;51.544;-3.276;2023-02-22T10:01:43;100659.19;;;3.71;74.91
74079;BME280;62437;51.544;-3.276;2023-02-22T10:04:10;100657.53;;;3.45;75.88
74079;BME280;62437;51.544;-3.276;2023-02-22T10:06:30;100656.92;;;3.72;76.08
74079;BME280;62437;51.544;-3.276;2023-02-22T10:09:00;100657.58;;;3.79;76.90
74079;BME280;62437;51.544;-3.276;2023-02-22T10:11:33;100659.73;;;4.13;75.74
74079;BME280;62437;51.544;-3.276;2023-02-22T10:13:54;100659.64;;;3.61;71.34
74079;BME280;62437;51.544;-3.276;2023-02-22T10:16:19;100657.48;;;5.15;74.79
74079;BME280;62437;51.544;-3.276;2023-02-22T10:21:11;100661.96;;;5.25;73.43
74079;BME280;62437;51.544;-3.276;2023-02-22T10:23:35;100664.02;;;3.31;77.93
74079;BME280;62437;51.544;-3.276;2023-02-22T10:26:03;100667.69;;;3.64;78.74
74079;BME280;62437;51.544;-3.276;2023-02-22T10:28:23;100661.26;;;4.79;77.92
74079;BME280;62437;51.544;-3.276;2023-02-22T10:30:50;100653.83;;;6.52;72.74
74079;BME280;62437;51.544;-3.276;2023-02-22T10:33:17;100662.80;;;5.89;69.89
74079;BME280;62437;51.544;-3.276;2023-02-22T10:35:38;100662.45;;;5.83;73.13
74079;BME280;62437;51.544;-3.276;2023-02-22T10:38:11;100664.62;;;6.22;71.07
74079;BME280;62437;51.544;-3.276;2023-02-22T10:40:31;100661.88;;;5.36;70.61
74079;BME280;62437;51.544;-3.276;2023-02-22T10:42:54;100664.59;;;4.60;74.05
74079;BME280;62437;51.544;-3.276;2023-02-22T10:45:25;100667.91;;;4.34;68.83
74079;BME280;62437;51.544;-3.276;2023-02-22T10:47:46;100667.50;;;3.44;69.60
74079;BME280;62437;51.544;-3.276;2023-02-22T10:50:13;100681.85;;;3.08;75.38
74079;BME280;62437;51.544;-3.276;2023-02-22T10:52:37;100682.78;;;3.43;74.56
74079;BME280;62437;51.544;-3.276;2023-02-22T10:55:03;100676.09;;;3.60;75.43
74079;BME280;62437;51.544;-3.276;2023-02-22T10:57:31;100680.22;;;3.42;75.47
74079;BME280;62437;51.544;-3.276;2023-02-22T10:59:54;100679.73;;;5.46;75.23
74079;BME280;62437;51.544;-3.276;2023-02-22T11:02:24;100678.20;;;4.09;72.25
74079;BME280;62437;51.544;-3.276;2023-02-22T11:04:48;100684.92;;;4.48;75.33
74079;BME280;62437;51.544;-3.276;2023-02-22T11:07:19;100685.54;;;3.66;73.78
74079;BME280;62437;51.544;-3.276;2023-02-22T11:09:48;100686.71;;;3.47;72.00
74079;BME280;62437;51.544;-3.276;2023-02-22T11:12:14;100682.35;;;4.53;76.37
74079;BME280;62437;51.544;-3.276;2023-02-22T11:14:30;100681.80;;;4.54;74.06
74079;BME280;62437;51.544;-3.276;2023-02-22T11:16:56;100682.29;;;2.92;69.99
74079;BME280;62437;51.544;-3.276;2023-02-22T11:19:21;100683.64;;;3.99;74.07
74079;BME280;62437;51.544;-3.276;2023-02-22T11:21:46;100678.49;;;3.90;69.07
74079;BME280;62437;51.544;-3.276;2023-02-22T11:24:13;100685.52;;;4.58;70.50
74079;BME280;62437;51.544;-3.276;2023-02-22T11:26:40;100684.06;;;3.55;71.68
74079;BME280;62437;51.544;-3.276;2023-02-22T11:29:14;100683.80;;;3.72;70.72
74079;BME280;62437;51.544;-3.276;2023-02-22T11:31:28;100685.86;;;4.51;74.75
74079;BME280;62437;51.544;-3.276;2023-02-22T11:33:57;100680.58;;;4.73;71.14
74079;BME280;62437;51.544;-3.276;2023-02-22T11:36:30;100683.32;;;7.18;69.67
74079;BME280;62437;51.544;-3.276;2023-02-22T11:38:53;100681.74;;;7.34;70.22
74079;BME280;62437;51.544;-3.276;2023-02-22T11:41:13;100688.70;;;3.66;70.22
74079;BME280;62437;51.544;-3.276;2023-02-22T11:43:37;100689.82;;;4.33;67.74
74079;BME280;62437;51.544;-3.276;2023-02-22T11:46:04;100683.26;;;4.07;72.21
74079;BME280;62437;51.544;-3.276;2023-02-22T11:48:31;100682.46;;;4.32;67.69
74079;BME280;62437;51.544;-3.276;2023-02-22T11:51:02;100684.28;;;3.16;70.63
74079;BME280;62437;51.544;-3.276;2023-02-22T11:53:28;100681.40;;;4.97;64.31
74079;BME280;62437;51.544;-3.276;2023-02-22T11:55:54;100684.58;;;4.92;71.89
74079;BME280;62437;51.544;-3.276;2023-02-22T11:58:25;100683.32;;;5.33;69.01
74079;BME280;62437;51.544;-3.276;2023-02-22T12:00:48;100684.88;;;4.68;70.17
74079;BME280;62437;51.544;-3.276;2023-02-22T12:05:41;100685.59;;;4.76;67.62
74079;BME280;62437;51.544;-3.276;2023-02-22T12:08:02;100691.04;;;3.34;71.19
74079;BME280;62437;51.544;-3.276;2023-02-22T12:10:27;100687.16;;;5.66;67.15
74079;BME280;62437;51.544;-3.276;2023-02-22T12:12:57;100689.53;;;5.21;67.74
74079;BME280;62437;51.544;-3.276;2023-02-22T12:15:16;100689.05;;;6.97;68.66
74079;BME280;62437;51.544;-3.276;2023-02-22T12:17:46;100693.53;;;3.94;70.33
74079;BME280;62437;51.544;-3.276;2023-02-22T12:20:08;100690.31;;;4.15;67.22
74079;BME280;62437;51.544;-3.276;2023-02-22T12:22:32;100687.77;;;4.11;65.53
74079;BME280;62437;51.544;-3.276;2023-02-22T12:24:59;100695.10;;;3.85;67.12
74079;BME280;62437;51.544;-3.276;2023-02-22T12:27:23;100695.44;;;5.07;69.28
74079;BME280;62437;51.544;-3.276;2023-02-22T12:29:49;100697.51;;;4.33;73.16
74079;BME280;62437;51.544;-3.276;2023-02-22T12:32:13;100692.93;;;6.30;73.00
74079;BME280;62437;51.544;-3.276;2023-02-22T12:34:39;100690.65;;;5.37;64.43
74079;BME280;62437;51.544;-3.276;2023-02-22T12:37:12;100693.54;;;4.88;65.39
74079;BME280;62437;51.544;-3.276;2023-02-22T12:39:39;100703.01;;;5.26;68.53
74079;BME280;62437;51.544;-3.276;2023-02-22T12:41:54;100701.50;;;4.73;68.67
74079;BME280;62437;51.544;-3.276;2023-02-22T12:44:24;100702.67;;;5.04;67.66
74079;BME280;62437;51.544;-3.276;2023-02-22T12:46:49;100709.57;;;4.58;67.72
74079;BME280;62437;51.544;-3.276;2023-02-22T12:49:15;100716.01;;;4.14;68.25
74079;BME280;62437;51.544;-3.276;2023-02-22T12:51:41;100706.40;;;5.05;70.84
74079;BME280;62437;51.544;-3.276;2023-02-22T12:54:09;100704.11;;;4.84;68.50
74079;BME280;62437;51.544;-3.276;2023-02-22T12:56:31;100698.67;;;5.26;73.75
74079;BME280;62437;51.544;-3.276;2023-02-22T12:58:59;100708.59;;;4.21;72.34